Colerain, Ohio
Current Conditions -  °F | °C
As of 5:53 PM on Friday 28 Nov 2014 (Local Time) from KHLG Reporting Station
Broken Clouds Broken Clouds  
Wind Chill: 19°   Ceiling: 11000
Heat Index: 26°   Visibility: 10mi
Dew Point: 16°   Wind: 6mph
Humidity: 66%   Direction: 220°SW
Pressure: 30.23"   Gusts: NA
Location:  40.13°N, 80.81°W
Report Text: KHLG 282253Z 22005KT 10SM BKN110 M03/M09 A3023 RMK AO2 SLP257 T10331089
Loading
Personal Weather Stations






























Interactive Weather Map New forecast layout! Learn more

10-Day Weather Forecast

Advertisements
Track Severe Weather on mobile